Terminal Aerodrome Forecast
Issued by NWS

Home | Current Version | Previous Version | Text Only | Print | Product List | Glossary On
Versions: 1 2 3 4 5 6 7 8 9 10 11 12 13 14 15 16 17 18 19 20 21 22 23 24 25 26
000
FTUS43 KDLH 191100
TAFHYR
TAF
KHYR 191138Z 1912/2012 15017G27KT P6SM BKN050
     FM191400 17017G27KT 6SM -SHRA BKN035
      TEMPO 1914/1917 3SM -SHRA BR BKN015
     FM191900 21014G22KT P6SM VCSH SCT035 OVC060
     FM192100 22012G22KT P6SM -SHRA BKN035
      TEMPO 1921/1924 3SM -SHRA BR BKN035
     FM200100 20006KT P6SM OVC040=

USA.gov is the U.S. government's official web portal to all federal, state and local government web resources and services.